Time;durP1;ratioP1;P1;durP2;ratioP2;P2;SDS_P1;SDS_P2;PMS_P1;PMS_P2;Temp;Humidity;BMP_temperature;BMP_pressure;BME280_temperature;BME280_humidity;BME280_pressure;Samples;Min_cycle;Max_cycle;Signal;HPM_P1;HPM_P2
2022/05/03 00:00:50;;;;;;;10.00;7.50;;;;;;;9.00;100.00;98508.97;5038960;28;20442;-62
2022/05/03 00:03:24;;;;;;;11.73;9.93;;;;;;;9.01;100.00;98497.03;5043100;28;20044;-61
2022/05/03 00:06:16;;;;;;;14.40;10.33;;;;;;;8.95;100.00;98494.56;5039460;28;20362;-62
2022/05/03 00:08:48;;;;;;;13.43;8.80;;;;;;;8.90;100.00;98504.88;5020132;28;20048;-61
2022/05/03 00:11:29;;;;;;;346.40;322.80;;;;;;;8.86;100.00;98521.13;5041818;28;20043;-61
2022/05/03 00:14:24;;;;;;;300.93;281.83;;;;;;;8.82;100.00;98508.41;5041535;28;20517;-61
2022/05/03 00:16:52;;;;;;;297.48;277.98;;;;;;;8.80;100.00;98510.97;5038218;28;20049;-61
2022/05/03 00:19:17;;;;;;;191.93;180.83;;;;;;;8.93;100.00;98498.84;5039590;28;20636;-62
2022/05/03 00:21:43;;;;;;;23.40;21.17;;;;;;;9.09;100.00;98503.72;5042560;28;20590;-61
2022/05/03 00:24:09;;;;;;;15.37;12.53;;;;;;;9.13;100.00;98487.44;5040496;28;20041;-61
2022/05/03 00:26:36;;;;;;;15.23;8.23;;;;;;;9.17;100.00;98494.22;5038786;28;20949;-61
2022/05/03 00:29:03;;;;;;;14.23;7.93;;;;;;;9.06;100.00;98483.31;5039524;28;20499;-61
2022/05/03 00:31:29;;;;;;;11.83;8.07;;;;;;;9.03;100.00;98485.94;5041174;28;20029;-62
2022/05/03 00:33:56;;;;;;;13.33;8.53;;;;;;;8.97;100.00;98493.66;5039455;28;20029;-64
2022/05/03 00:36:22;;;;;;;14.13;8.97;;;;;;;8.87;100.00;98493.84;5037773;28;20120;-62
2022/05/03 00:38:48;;;;;;;11.77;7.90;;;;;;;8.75;100.00;98488.88;5039470;28;20036;-62
2022/05/03 00:41:24;;;;;;;12.80;7.53;;;;;;;8.79;100.00;98490.53;5041854;28;20033;-61
2022/05/03 00:44:03;;;;;;;13.27;8.07;;;;;;;8.76;100.00;98488.88;5038716;28;20025;-61
2022/05/03 00:46:34;;;;;;;16.80;10.37;;;;;;;8.79;100.00;98487.97;5038130;28;20028;-61
2022/05/03 00:49:25;;;;;;;21.77;19.80;;;;;;;8.80;100.00;98487.97;5040057;28;20041;-62
2022/05/03 00:52:16;;;;;;;11.33;8.60;;;;;;;8.70;100.00;98491.50;5040238;28;20120;-62
2022/05/03 00:54:51;;;;;;;15.53;10.17;;;;;;;8.64;100.00;98491.59;5037748;28;20430;-62
2022/05/03 00:57:23;;;;;;;11.80;7.40;;;;;;;8.60;100.00;98490.81;5039663;28;20526;-62
2022/05/03 01:00:05;;;;;;;13.07;9.77;;;;;;;8.54;100.00;98482.34;5040617;28;20110;-61
2022/05/03 01:02:42;;;;;;;15.07;13.47;;;;;;;8.54;100.00;98485.75;5039060;28;20167;-62
2022/05/03 01:05:10;;;;;;;9.70;6.57;;;;;;;8.49;100.00;98486.69;5041962;28;20131;-62
2022/05/03 01:07:56;;;;;;;9.97;6.70;;;;;;;8.48;100.00;98490.97;5045485;28;20257;-62
2022/05/03 01:10:38;;;;;;;;;;;;;;;8.46;100.00;98486.72;5044900;28;20061;-63
2022/05/03 01:13:18;;;;;;;13.97;7.10;;;;;;;8.41;100.00;98478.28;5041835;28;20455;-62
2022/05/03 01:15:51;;;;;;;10.07;7.23;;;;;;;8.40;100.00;98482.53;5042972;28;20063;-62
2022/05/03 01:18:27;;;;;;;7.63;6.30;;;;;;;8.40;100.00;98489.38;5045681;28;20965;-62
2022/05/03 01:21:04;;;;;;;10.77;7.20;;;;;;;8.36;100.00;98487.72;5042241;28;20033;-62
2022/05/03 01:23:36;;;;;;;16.07;9.50;;;;;;;8.44;100.00;98494.44;5040124;28;20099;-62
2022/05/03 01:26:33;;;;;;;5.43;4.20;;;;;;;8.44;100.00;98491.88;5045410;28;20068;-62
2022/05/03 01:28:59;;;;;;;4.33;3.93;;;;;;;8.43;100.00;98499.53;5044380;28;20453;-62
2022/05/03 01:31:27;;;;;;;3.93;3.57;;;;;;;8.54;100.00;98497.69;5040837;28;20036;-62
2022/05/03 01:34:00;;;;;;;4.07;3.63;;;;;;;8.47;100.00;98488.41;5041892;28;20037;-62
2022/05/03 01:37:16;;;;;;;4.17;3.77;;;;;;;8.46;100.00;98494.38;5045004;28;20490;-62
2022/05/03 01:40:04;;;;;;;4.25;3.78;;;;;;;8.41;100.00;98496.16;5016261;28;20136;-62
2022/05/03 01:42:56;;;;;;;3.47;3.10;;;;;;;8.40;100.00;98494.47;5039406;28;20404;-63
2022/05/03 01:45:36;;;;;;;4.97;4.60;;;;;;;8.34;100.00;98492.00;5045375;28;20045;-62
2022/05/03 01:48:04;;;;;;;3.97;3.57;;;;;;;8.28;100.00;98487.75;5043202;28;20131;-62
2022/05/03 01:50:33;;;;;;;4.13;3.63;;;;;;;8.23;100.00;98487.00;5039808;28;20143;-62
2022/05/03 01:53:10;;;;;;;4.57;3.57;;;;;;;8.25;100.00;98488.66;5042642;28;20076;-62
2022/05/03 01:56:08;;;;;;;5.17;4.27;;;;;;;8.20;100.00;98492.13;5044554;28;20536;-63
2022/05/03 01:59:03;;;;;;;6.50;3.83;;;;;;;8.15;100.00;98479.41;5041166;28;20565;-62
2022/05/03 02:01:40;;;;;;;5.13;3.10;;;;;;;8.08;100.00;98487.16;5040839;28;20029;-62
2022/05/03 02:04:43;;;;;;;4.93;3.60;;;;;;;8.04;100.00;98476.13;5044899;28;20110;-62
2022/05/03 02:07:30;;;;;;;4.30;3.90;;;;;;;8.04;100.00;98481.25;5041238;28;20064;-62
2022/05/03 02:10:06;;;;;;;5.07;4.23;;;;;;;8.03;100.00;98481.25;5040377;28;20037;-62
2022/05/03 02:12:33;;;;;;;4.80;4.30;;;;;;;7.99;100.00;98485.56;5043916;28;20487;-62
2022/05/03 02:15:01;;;;;;;4.50;3.77;;;;;;;7.96;100.00;98483.03;5043811;28;20140;-62
2022/05/03 02:17:50;;;;;;;4.80;4.27;;;;;;;7.93;100.00;98488.19;5040682;28;20041;-62
2022/05/03 02:20:43;;;;;;;5.13;3.77;;;;;;;7.89;100.00;98475.47;5040222;28;20495;-62
2022/05/03 02:23:27;;;;;;;5.30;3.60;;;;;;;7.86;100.00;98481.44;5044753;28;20128;-62
2022/05/03 02:26:05;;;;;;;5.17;4.53;;;;;;;7.78;100.00;98473.88;5042010;28;20112;-62
2022/05/03 02:28:53;;;;;;;5.40;4.03;;;;;;;7.82;100.00;98472.13;5040160;28;20036;-61
2022/05/03 02:31:27;;;;;;;6.63;4.30;;;;;;;7.92;100.00;98478.00;5043545;28;20107;-62
2022/05/03 02:34:00;;;;;;;4.37;3.97;;;;;;;7.93;100.00;98477.97;5043833;28;20447;-62
2022/05/03 02:36:28;;;;;;;4.37;3.80;;;;;;;7.94;100.00;98482.19;5040271;28;20115;-62
2022/05/03 02:39:04;;;;;;;5.80;4.00;;;;;;;7.92;100.00;98470.34;5040431;28;20572;-62
2022/05/03 02:41:36;;;;;;;6.03;4.07;;;;;;;7.89;100.00;98471.22;5043953;28;20064;-62
2022/05/03 02:44:02;;;;;;;4.73;4.27;;;;;;;7.94;100.00;98477.09;5043093;28;20057;-62
2022/05/03 02:46:31;;;;;;;5.20;3.73;;;;;;;7.99;100.00;98474.50;5039813;28;20415;-62
2022/05/03 02:49:04;;;;;;;3.97;3.57;;;;;;;7.93;100.00;98480.53;5041415;28;20047;-62
2022/05/03 02:51:39;;;;;;;4.37;3.90;;;;;;;7.95;100.00;98476.25;5043687;28;20151;-62
2022/05/03 02:54:18;;;;;;;4.60;4.00;;;;;;;8.10;100.00;98481.19;5041085;28;20433;-61
2022/05/03 02:56:51;;;;;;;4.00;3.60;;;;;;;7.99;100.00;98477.03;5039211;28;20530;-62
2022/05/03 03:02:35;;;;;;;5.73;4.07;;;;;;;7.93;100.00;98472.03;5043317;28;20036;-62
2022/05/03 03:05:08;;;;;;;6.13;3.80;;;;;;;8.06;100.00;98481.25;5039104;28;20033;-62
2022/05/03 03:07:57;;;;;;;7.17;4.47;;;;;;;8.06;100.00;98473.59;5040127;28;20043;-62
2022/05/03 03:10:31;;;;;;;5.33;3.80;;;;;;;8.00;100.00;98473.63;5043495;28;20020;-63
2022/05/03 03:13:13;;;;;;;7.37;4.67;;;;;;;7.96;100.00;98469.44;5041534;28;20028;-62
2022/05/03 03:15:40;;;;;;;4.37;3.97;;;;;;;7.83;100.00;98463.63;5038552;28;20052;-62
2022/05/03 03:18:13;;;;;;;5.27;4.30;;;;;;;7.77;100.00;98471.31;5042417;28;20056;-62
2022/05/03 03:20:44;;;;;;;5.67;4.60;;;;;;;7.67;100.00;98465.50;5043114;28;20404;-62
2022/05/03 03:23:15;;;;;;;4.90;4.50;;;;;;;7.62;100.00;98472.34;5039698;28;20550;-62
2022/05/03 03:25:43;;;;;;;6.63;5.00;;;;;;;7.54;100.00;98465.63;5038120;28;20501;-62
2022/05/03 03:28:13;;;;;;;4.63;4.17;;;;;;;7.61;100.00;98464.69;5042705;28;20364;-61
2022/05/03 03:30:44;;;;;;;4.40;4.00;;;;;;;7.54;100.00;98468.16;5042355;28;20616;-62
2022/05/03 03:33:12;;;;;;;6.27;4.67;;;;;;;7.53;100.00;98472.44;5038250;28;20044;-64
2022/05/03 03:35:41;;;;;;;5.97;4.57;;;;;;;7.53;100.00;98471.56;5039386;28;20043;-63
2022/05/03 03:38:07;;;;;;;4.07;3.77;;;;;;;7.49;100.00;98472.47;5025964;28;20036;-63
2022/05/03 03:40:33;;;;;;;7.70;4.13;;;;;;;7.46;100.00;98473.34;5041448;28;20060;-63
2022/05/03 03:42:58;;;;;;;8.53;5.37;;;;;;;7.43;100.00;98469.97;5038326;28;20033;-62
2022/05/03 03:45:24;;;;;;;4.90;4.50;;;;;;;7.42;100.00;98475.94;5040405;28;20040;-63
2022/05/03 03:47:49;;;;;;;4.70;4.07;;;;;;;7.43;100.00;98475.06;5042751;28;20061;-63
2022/05/03 03:50:15;;;;;;;5.77;5.20;;;;;;;7.46;100.00;98475.06;5040506;28;20047;-62
2022/05/03 03:52:42;;;;;;;6.27;4.63;;;;;;;7.45;100.00;98476.75;5037623;28;20659;-63
2022/05/03 03:55:10;;;;;;;7.40;4.20;;;;;;;7.46;100.00;98469.97;5040786;28;20040;-63
2022/05/03 03:57:37;;;;;;;5.17;4.67;;;;;;;7.48;100.00;98468.22;5042097;28;20811;-62
2022/05/03 04:00:11;;;;;;;6.60;4.67;;;;;;;7.51;100.00;98469.03;5039441;28;20444;-63
2022/05/03 04:02:40;;;;;;;4.95;4.55;;;;;;;7.61;100.00;98474.91;5038259;28;20717;-63
2022/05/03 04:05:07;;;;;;;5.10;4.60;;;;;;;7.68;100.00;98472.25;5041437;28;20436;-62
2022/05/03 04:07:33;;;;;;;7.67;3.90;;;;;;;7.79;100.00;98475.56;5041704;28;20033;-62
2022/05/03 04:09:58;;;;;;;4.73;4.20;;;;;;;7.90;100.00;98475.44;5039466;28;20031;-62
2022/05/03 04:12:25;;;;;;;7.17;4.50;;;;;;;7.99;100.00;98474.50;5036119;28;20021;-61
2022/05/03 04:14:51;;;;;;;4.70;4.30;;;;;;;8.12;100.00;98469.22;5040885;28;20467;-62
2022/05/03 04:17:16;;;;;;;5.77;4.53;;;;;;;8.25;100.00;98469.94;5042488;28;20565;-62
2022/05/03 04:19:43;;;;;;;4.47;4.03;;;;;;;8.37;100.00;98476.63;5039788;28;20041;-62
2022/05/03 04:22:41;;;;;;;7.53;4.20;;;;;;;8.59;100.00;98480.59;5037612;28;20027;-61
2022/05/03 04:25:07;;;;;;;4.90;4.40;;;;;;;8.73;100.00;98472.75;5008743;28;20037;-62
2022/05/03 04:27:32;;;;;;;5.07;3.87;;;;;;;8.89;100.00;98481.88;5041837;28;20036;-64
2022/05/03 04:30:00;;;;;;;4.50;4.10;;;;;;;9.06;100.00;98480.75;5038452;28;20032;-62
2022/05/03 04:32:30;;;;;;;5.43;4.00;;;;;;;9.17;100.00;98483.13;5039533;28;20037;-62
2022/05/03 04:34:56;;;;;;;5.17;3.73;;;;;;;9.22;100.00;98483.91;5041981;28;20036;-62
2022/05/03 04:37:21;;;;;;;4.60;4.20;;;;;;;9.35;100.00;98479.44;5041467;28;20039;-61
2022/05/03 04:39:47;;;;;;;5.67;4.10;;;;;;;9.48;100.00;98478.34;5041872;28;20520;-62
2022/05/03 04:42:13;;;;;;;4.40;4.00;;;;;;;9.60;100.00;98480.69;5044696;28;20137;-62
2022/05/03 04:44:38;;;;;;;4.20;3.57;;;;;;;9.70;100.00;98481.41;5046538;28;20033;-61
2022/05/03 04:47:04;;;;;;;4.07;3.67;;;;;;;9.85;100.00;98491.34;5026131;28;20036;-61
2022/05/03 04:49:30;;;;;;;4.57;4.13;;;;;;;9.91;100.00;98481.84;5042453;28;20484;-61
2022/05/03 04:51:55;;;;;;;5.00;4.43;;;;;;;10.06;100.00;98484.09;5045274;28;20124;-63
2022/05/03 04:54:21;;;;;;;3.88;3.53;;;;;;;10.18;100.00;98480.53;5046201;28;20550;-64
2022/05/03 04:56:53;;;;;;;4.13;3.67;;;;;;;10.30;100.00;98484.53;5043305;28;20036;-62
2022/05/03 04:59:18;;;;;;;4.87;4.07;;;;;;;10.35;100.00;98482.75;5042196;28;20812;-62
2022/05/03 05:01:44;;;;;;;4.32;3.90;;;;;;;10.45;100.00;98486.78;5045421;28;20045;-62
2022/05/03 05:04:09;;;;;;;4.70;3.85;;;;;;;10.56;100.00;98484.84;5046264;28;20711;-62
2022/05/03 05:06:35;;;;;;;7.35;3.90;;;;;;;10.65;100.00;98476.94;5041599;28;20029;-59
2022/05/03 05:09:01;;;;;;;4.80;4.30;;;;;;;10.80;100.00;98475.78;5041723;28;20083;-59
2022/05/03 05:11:26;;;;;;;5.88;4.13;;;;;;;10.91;100.00;98482.34;5045660;28;20025;-61
2022/05/03 05:13:51;;;;;;;4.18;3.88;;;;;;;11.05;100.00;98484.59;5046019;28;20029;-61
2022/05/03 05:16:17;;;;;;;5.25;4.05;;;;;;;11.15;100.00;98480.09;5040951;28;20136;-61
2022/05/03 05:18:43;;;;;;;4.00;3.63;;;;;;;11.31;100.00;98483.97;5041988;28;20426;-61
2022/05/03 05:21:10;;;;;;;4.38;3.85;;;;;;;11.41;100.00;98476.00;5044966;28;20033;-61
2022/05/03 05:23:35;;;;;;;5.65;4.25;;;;;;;11.59;100.00;98487.53;5045148;28;20077;-61
2022/05/03 05:26:02;;;;;;;6.10;4.18;;;;;;;11.77;100.00;98488.81;5041296;28;20029;-61
2022/05/03 05:28:28;;;;;;;4.57;4.18;;;;;;;11.95;100.00;98484.94;5041664;28;20107;-61
2022/05/03 05:30:53;;;;;;;4.30;3.78;;;;;;;12.09;100.00;98483.69;5043701;28;20043;-62
2022/05/03 05:33:20;;;;;;;3.42;3.13;;;;;;;12.23;100.00;98481.56;5042784;28;20037;-61
2022/05/03 05:35:46;;;;;;;4.70;3.45;;;;;;;12.38;100.00;98489.75;5039553;28;20033;-59
2022/05/03 05:38:14;;;;;;;4.72;4.32;;;;;;;12.50;100.00;98490.22;5040374;28;20166;-61
2022/05/03 05:40:40;;;;;;;6.70;4.20;;;;;;;12.65;100.00;98494.91;5044683;28;20113;-62
2022/05/03 05:43:05;;;;;;;5.63;4.25;;;;;;;12.82;100.00;98492.69;5042642;28;20029;-60
2022/05/03 05:45:31;;;;;;;3.72;3.42;;;;;;;12.93;100.00;98492.38;5040447;28;20378;-61
2022/05/03 05:47:56;;;;;;;4.13;3.72;;;;;;;13.03;100.00;98485.19;5042168;28;20037;-61
2022/05/03 05:50:23;;;;;;;5.10;4.30;;;;;;;13.11;100.00;98491.81;5045674;28;20033;-61
2022/05/03 05:55:32;;;;;;;4.32;3.92;;;;;;;13.32;100.00;98485.16;5040515;28;20079;-61
2022/05/03 05:57:57;;;;;;;4.70;4.25;;;;;;;13.18;100.00;98487.31;5044296;28;20037;-60
2022/05/03 06:00:23;;;;;;;4.10;3.60;;;;;;;13.33;100.00;98488.56;5044505;28;20036;-60
2022/05/03 06:02:48;;;;;;;4.43;4.00;;;;;;;13.55;100.00;98484.38;5041219;28;20561;-61
2022/05/03 06:05:13;;;;;;;3.63;3.33;;;;;;;13.70;100.00;98487.31;5040467;28;20083;-60
2022/05/03 06:07:39;;;;;;;3.53;3.30;;;;;;;13.71;100.00;98482.97;5045535;28;20041;-62
2022/05/03 06:10:05;;;;;;;4.35;3.95;;;;;;;13.75;100.00;98489.72;5044708;28;20064;-61
2022/05/03 06:12:31;;;;;;;6.20;4.07;;;;;;;13.88;100.00;98479.81;5039402;28;20475;-59
2022/05/03 06:14:56;;;;;;;4.63;4.13;;;;;;;13.95;100.00;98482.16;5041276;28;20092;-61
2022/05/03 06:17:22;;;;;;;4.32;3.72;;;;;;;14.26;100.00;98479.31;5044536;28;20127;-60
2022/05/03 06:19:47;;;;;;;4.25;3.85;;;;;;;14.32;100.00;98484.25;5043537;28;20169;-61
2022/05/03 06:22:13;;;;;;;6.22;4.28;;;;;;;14.49;100.00;98484.50;5038593;28;20329;-61
2022/05/03 06:24:39;;;;;;;6.13;3.92;;;;;;;14.59;100.00;98482.44;5042015;28;20127;-60
2022/05/03 06:27:05;;;;;;;7.78;4.78;;;;;;;14.74;100.00;98473.25;5044306;28;20479;-61
2022/05/03 06:29:32;;;;;;;4.88;4.13;;;;;;;14.80;100.00;98475.63;5041813;28;20048;-61
2022/05/03 06:31:59;;;;;;;3.67;3.33;;;;;;;14.88;100.00;98471.00;5040003;28;20025;-61
2022/05/03 06:34:25;;;;;;;5.03;4.60;;;;;;;15.07;100.00;98474.53;5014799;28;20072;-61
2022/05/03 06:36:51;;;;;;;5.40;4.90;;;;;;;15.25;100.00;98476.38;5043154;28;20060;-61
2022/05/03 06:39:16;;;;;;;5.60;4.28;;;;;;;15.42;100.00;98484.31;5042677;28;20764;-62
2022/05/03 06:41:42;;;;;;;4.63;4.22;;;;;;;15.53;100.00;98484.72;5039476;28;20029;-61
2022/05/03 06:44:07;;;;;;;4.57;4.18;;;;;;;15.56;100.00;98485.50;5042435;28;20126;-61
2022/05/03 06:46:33;;;;;;;4.10;3.55;;;;;;;15.63;100.00;98487.78;5043215;28;20036;-61
2022/05/03 06:48:58;;;;;;;4.40;4.00;;;;;;;15.72;99.20;98484.81;5041533;28;20117;-61
2022/05/03 06:51:23;;;;;;;4.30;3.90;;;;;;;15.77;98.14;98482.03;5039635;28;20041;-61
2022/05/03 06:53:49;;;;;;;4.07;3.67;;;;;;;15.95;97.12;98483.84;5042436;28;20354;-61
2022/05/03 06:56:14;;;;;;;4.25;3.95;;;;;;;16.10;96.94;98484.91;5043632;28;20316;-61
2022/05/03 06:58:40;;;;;;;5.32;4.85;;;;;;;16.22;96.85;98476.59;5040707;28;20394;-60
2022/05/03 07:01:16;;;;;;;5.07;3.85;;;;;;;16.38;97.26;98475.84;5038540;28;20115;-60
2022/05/03 07:03:42;;;;;;;5.20;4.75;;;;;;;16.55;100.00;98480.28;5025301;28;20040;-61
2022/05/03 07:06:08;;;;;;;6.20;4.00;;;;;;;16.78;96.06;98476.66;5043618;28;20160;-60
2022/05/03 07:08:35;;;;;;;6.45;4.20;;;;;;;16.85;97.96;98476.31;5038942;28;20097;-61
2022/05/03 07:11:01;;;;;;;4.97;4.57;;;;;;;16.94;95.71;98476.78;5039785;28;20035;-61
2022/05/03 07:13:28;;;;;;;4.60;4.05;;;;;;;17.14;91.94;98479.28;5043596;28;20060;-61
2022/05/03 07:15:54;;;;;;;4.75;4.35;;;;;;;17.28;90.79;98482.88;5042805;28;20195;-61
2022/05/03 07:23:49;;;;;;;4.30;3.90;;;;;;;17.58;87.31;98479.72;5043641;28;20079;-60
2022/05/03 07:26:15;;;;;;;4.95;3.92;;;;;;;17.63;86.81;98494.16;5041053;28;20586;-61
2022/05/03 07:28:41;;;;;;;4.03;3.72;;;;;;;17.64;80.90;98485.47;5039206;28;20048;-60
2022/05/03 07:31:07;;;;;;;5.22;4.10;;;;;;;17.71;81.05;98473.03;5041562;28;20042;-61
2022/05/03 07:33:34;;;;;;;4.32;4.03;;;;;;;17.67;79.52;98481.88;5043484;28;20028;-64
2022/05/03 07:35:59;;;;;;;4.50;4.10;;;;;;;17.82;83.36;98486.31;5040690;28;20445;-61
2022/05/03 07:38:25;;;;;;;5.13;4.57;;;;;;;17.99;84.80;98481.06;5038992;28;20037;-61
2022/05/03 07:40:50;;;;;;;5.30;4.90;;;;;;;18.11;77.26;98475.28;5042134;28;20532;-61
2022/05/03 07:43:16;;;;;;;5.20;4.72;;;;;;;18.14;79.36;98477.72;5043366;28;20467;-60
2022/05/03 07:45:41;;;;;;;5.03;4.63;;;;;;;18.33;74.98;98472.38;5039154;28;20036;-60
2022/05/03 07:48:06;;;;;;;8.23;4.53;;;;;;;18.38;74.64;98482.53;5038554;28;20048;-60
2022/05/03 07:50:32;;;;;;;5.53;4.05;;;;;;;18.54;69.43;98476.47;5042786;28;20025;-61
2022/05/03 07:52:58;;;;;;;4.55;4.15;;;;;;;18.61;68.54;98474.38;5042950;28;20470;-61
2022/05/03 07:55:23;;;;;;;5.60;4.35;;;;;;;18.68;66.16;98475.72;5038447;28;20115;-61
2022/05/03 07:57:49;;;;;;;4.72;4.32;;;;;;;18.68;69.34;98473.97;5038522;28;20040;-61
2022/05/03 08:00:15;;;;;;;6.03;4.28;;;;;;;18.91;67.95;98482.28;5043274;28;20041;-61
2022/05/03 08:02:40;;;;;;;4.50;4.07;;;;;;;18.88;64.33;98477.25;5042987;28;20043;-62
2022/05/03 08:05:07;;;;;;;6.15;3.75;;;;;;;18.97;65.13;98477.56;5037633;28;20033;-62
2022/05/03 08:07:35;;;;;;;4.55;3.90;;;;;;;19.00;65.03;98472.22;5038859;28;20033;-61
2022/05/03 08:10:00;;;;;;;5.53;3.25;;;;;;;19.17;65.96;98473.88;5040989;28;20102;-61
2022/05/03 08:12:26;;;;;;;4.82;3.65;;;;;;;19.26;60.90;98481.16;5040732;28;20029;-61
2022/05/03 08:14:52;;;;;;;3.25;3.00;;;;;;;19.38;59.37;98477.03;5036943;28;20415;-62
2022/05/03 08:17:17;;;;;;;4.90;3.30;;;;;;;19.28;58.38;98481.91;5023460;28;20146;-62
2022/05/03 08:19:42;;;;;;;3.30;3.00;;;;;;;19.46;58.29;98480.03;5040262;28;20043;-61
2022/05/03 08:22:08;;;;;;;3.47;3.17;;;;;;;19.67;57.42;98483.16;5040250;28;20033;-61
2022/05/03 08:24:33;;;;;;;3.78;3.53;;;;;;;19.73;58.46;98486.25;5038328;28;20399;-60
2022/05/03 08:27:00;;;;;;;3.30;3.10;;;;;;;19.80;55.81;98484.97;5040433;28;20236;-60
2022/05/03 08:29:27;;;;;;;3.95;2.92;;;;;;;19.84;54.95;98486.47;5042317;28;20033;-61
2022/05/03 08:31:52;;;;;;;4.07;3.30;;;;;;;19.88;54.60;98493.16;5040947;28;20265;-63
2022/05/03 08:34:18;;;;;;;4.63;3.35;;;;;;;19.91;55.37;98485.16;5037302;28;20447;-58
2022/05/03 08:42:01;;;;;;;3.67;3.38;;;;;;;20.06;57.52;98491.25;5040778;28;20036;-63
2022/05/03 08:42:14;;;;;;;2.70;2.50;;;;;;;20.30;55.20;98483.75;5038664;28;19920;-60
2022/05/03 08:44:39;;;;;;;3.38;3.08;;;;;;;20.47;52.57;98478.34;5037218;28;20029;-61
2022/05/03 08:47:05;;;;;;;4.60;2.75;;;;;;;20.67;51.72;98482.31;5042144;28;20640;-61
2022/05/03 08:49:50;;;;;;;2.83;2.42;;;;;;;20.68;50.88;98478.78;5042636;28;20045;-60
2022/05/03 08:52:17;;;;;;;3.05;2.85;;;;;;;20.72;50.89;98477.66;5037856;28;20029;-59
2022/05/03 08:54:43;;;;;;;3.60;3.30;;;;;;;20.53;49.55;98485.81;5039600;28;20059;-59
2022/05/03 08:57:09;;;;;;;3.53;2.67;;;;;;;20.45;48.70;98475.03;5042599;28;20178;-60
2022/05/03 08:59:36;;;;;;;4.70;3.13;;;;;;;20.67;50.11;98477.94;5040928;28;20462;-59
2022/05/03 09:02:03;;;;;;;3.45;3.10;;;;;;;20.92;48.28;98475.47;5037564;28;20105;-59
2022/05/03 09:04:28;;;;;;;4.07;3.20;;;;;;;20.84;47.58;98474.28;5040257;28;20045;-59
2022/05/03 09:06:54;;;;;;;4.60;3.08;;;;;;;20.56;46.80;98469.13;5041674;28;20036;-60
2022/05/03 09:09:21;;;;;;;3.97;2.90;;;;;;;20.61;47.38;98469.69;5039044;28;20043;-59
2022/05/03 09:11:53;;;;;;;3.22;2.45;;;;;;;20.78;47.67;98459.06;5037443;28;20048;-60
2022/05/03 09:14:38;;;;;;;4.35;2.60;;;;;;;20.97;47.97;98468.22;5040515;28;20617;-61
2022/05/03 09:17:05;;;;;;;2.70;2.50;;;;;;;21.13;46.94;98464.66;5042266;28;20087;-58
2022/05/03 09:19:31;;;;;;;2.92;2.72;;;;;;;21.31;45.10;98453.84;5039175;28;20067;-60
2022/05/03 09:24:57;;;;;;;5.80;3.00;;;;;;;21.59;45.16;98459.88;5044182;28;20059;-58
2022/05/03 09:27:24;;;;;;;3.15;2.85;;;;;;;21.61;45.15;98461.44;5044345;28;20457;-60
2022/05/03 09:30:10;;;;;;;3.40;3.10;;;;;;;21.49;44.72;98459.66;5040699;28;20156;-60
2022/05/03 09:32:43;;;;;;;5.78;2.58;;;;;;;21.62;41.44;98452.69;5042807;28;20059;-60
2022/05/03 09:35:34;;;;;;;2.42;2.22;;;;;;;21.52;40.84;98451.63;5045045;28;20063;-59
2022/05/03 09:38:03;;;;;;;2.78;2.58;;;;;;;21.64;40.72;98442.16;5041171;28;20075;-59
2022/05/03 09:40:34;;;;;;;2.88;2.50;;;;;;;21.71;38.96;98448.63;5040156;28;20086;-60
2022/05/03 09:42:59;;;;;;;2.53;2.42;;;;;;;21.84;38.99;98439.88;5040215;28;20060;-59
2022/05/03 09:45:27;;;;;;;4.38;2.65;;;;;;;21.96;40.55;98446.06;5042722;28;20470;-60
2022/05/03 09:47:57;;;;;;;3.08;2.78;;;;;;;22.11;40.15;98438.94;5040966;28;20072;-60
2022/05/03 09:50:37;;;;;;;3.17;2.85;;;;;;;22.08;41.04;98440.00;5040228;28;20029;-61
2022/05/03 09:53:20;;;;;;;2.90;2.50;;;;;;;22.06;39.46;98436.69;5026943;28;20044;-58
2022/05/03 09:55:48;;;;;;;2.97;2.78;;;;;;;22.23;40.34;98428.50;5043754;28;20033;-60
2022/05/03 09:58:15;;;;;;;2.70;2.50;;;;;;;22.36;40.60;98427.66;5039754;28;20033;-60
2022/05/03 10:00:48;;;;;;;3.38;2.60;;;;;;;22.30;39.93;98424.53;5042037;28;20040;-59
2022/05/03 10:03:14;;;;;;;2.85;2.65;;;;;;;22.25;39.28;98428.38;5042285;28;20086;-61
2022/05/03 10:05:41;;;;;;;2.70;2.50;;;;;;;22.34;39.70;98425.13;5039713;28;20459;-61
2022/05/03 10:08:11;;;;;;;3.20;2.88;;;;;;;22.25;41.07;98424.00;5038934;28;20061;-61
2022/05/03 10:10:40;;;;;;;2.83;2.55;;;;;;;22.33;40.43;98424.28;5040512;28;20039;-61
2022/05/03 10:13:05;;;;;;;2.60;2.40;;;;;;;22.54;44.56;98416.72;5041438;28;20052;-61
2022/05/03 10:21:17;;;;;;;3.05;2.60;;;;;;;22.85;41.95;98411.94;5044724;28;20090;-60
2022/05/03 10:24:01;;;;;;;2.92;2.83;;;;;;;23.07;41.11;98405.06;5044161;28;20051;-61
2022/05/03 10:26:46;;;;;;;3.22;2.90;;;;;;;;;;5040992;28;20029;-58
2022/05/03 10:29:12;;;;;;;;;;;;;;;23.33;42.17;98407.53;5043659;28;20090;-53
2022/05/03 10:31:54;;;;;;;3.28;2.97;;;;;;;23.54;40.16;98414.66;5042775;28;19909;-60
2022/05/03 10:34:45;;;;;;;2.47;2.33;;;;;;;23.42;38.22;98410.31;5040793;28;20048;-58
2022/05/03 10:37:12;;;;;;;3.72;2.70;;;;;;;23.34;39.62;98406.59;5039188;28;20044;-60
2022/05/03 10:39:54;;;;;;;5.72;3.90;;;;;;;23.39;41.67;98401.81;5044164;28;20070;-60
2022/05/03 10:42:26;;;;;;;3.45;3.25;;;;;;;23.69;40.60;98399.56;5043822;28;20116;-60
2022/05/03 10:45:16;;;;;;;4.47;2.50;;;;;;;23.58;38.78;98396.94;5039403;28;20029;-60
2022/05/03 10:47:51;;;;;;;2.85;2.65;;;;;;;23.71;38.72;98388.97;5042353;28;20052;-60
2022/05/03 10:50:16;;;;;;;2.92;2.60;;;;;;;24.16;38.99;98384.63;5044501;28;20029;-60
2022/05/03 10:52:59;;;;;;;2.90;2.75;;;;;;;24.40;37.65;98383.50;5040720;28;20098;-60
2022/05/03 10:55:37;;;;;;;3.38;3.10;;;;;;;24.57;39.41;98382.16;5039216;28;20059;-61
2022/05/03 10:58:35;;;;;;;4.18;3.17;;;;;;;24.71;37.24;98381.91;5044399;28;20036;-60
2022/05/03 11:01:11;;;;;;;3.30;3.10;;;;;;;24.43;38.48;98377.22;5039671;28;20130;-61
2022/05/03 11:03:39;;;;;;;3.83;3.53;;;;;;;23.98;38.98;98382.44;5038430;28;20487;-58
2022/05/03 11:06:40;;;;;;;4.00;3.55;;;;;;;24.04;39.48;98392.47;5040470;28;20123;-60
2022/05/03 11:11:50;;;;;;;7.88;4.35;;;;;;;23.64;40.78;98386.81;5040937;28;20029;-60
2022/05/03 11:14:15;;;;;;;3.17;3.03;;;;;;;23.74;39.56;98383.50;5039111;28;20083;-60
2022/05/03 11:16:47;;;;;;;3.50;3.30;;;;;;;23.57;40.04;98390.84;5044108;28;20116;-60
2022/05/03 11:19:18;;;;;;;3.80;3.50;;;;;;;23.39;40.72;98391.34;5043298;28;20151;-61
2022/05/03 11:21:45;;;;;;;4.90;4.47;;;;;;;23.02;42.10;98386.25;5038610;28;20123;-61
2022/05/03 11:24:26;;;;;;;4.68;4.30;;;;;;;22.67;42.34;98383.53;5038286;28;20123;-60
2022/05/03 11:26:54;;;;;;;4.38;4.05;;;;;;;22.39;45.05;98390.84;5038217;28;20043;-61
2022/05/03 11:29:20;;;;;;;3.33;3.13;;;;;;;22.26;45.53;98390.88;5039269;28;20513;-58
2022/05/03 11:31:50;;;;;;;6.50;3.67;;;;;;;22.01;44.40;98403.97;5038513;28;20033;-61
2022/05/03 11:34:18;;;;;;;5.72;2.83;;;;;;;21.45;44.62;98420.81;5040642;28;20479;-60
2022/05/03 11:36:50;;;;;;;2.80;2.60;;;;;;;20.90;43.30;98408.75;5042708;28;20037;-62
2022/05/03 11:39:16;;;;;;;2.47;2.38;;;;;;;19.95;44.27;98402.53;5040702;28;20025;-62
2022/05/03 11:41:44;;;;;;;2.58;2.38;;;;;;;19.57;44.80;98413.47;5037934;28;20033;-60
2022/05/03 11:44:11;;;;;;;4.00;2.95;;;;;;;19.32;45.59;98414.97;5039679;28;20494;-60
2022/05/03 11:46:40;;;;;;;2.97;2.67;;;;;;;19.28;46.84;98422.09;5042279;28;20035;-60
2022/05/03 11:49:08;;;;;;;2.95;2.67;;;;;;;18.99;48.06;98417.72;5039635;28;20037;-59
2022/05/03 11:57:10;;;;;;;3.63;3.35;;;;;;;18.70;52.95;98407.22;5041823;28;20071;-59
2022/05/03 11:59:36;;;;;;;2.75;2.65;;;;;;;18.38;63.05;98438.38;5038700;28;20060;-58
2022/05/03 12:02:15;;;;;;;3.00;2.80;;;;;;;18.18;67.36;98437.69;5039413;28;20032;-59
2022/05/03 12:05:06;;;;;;;3.08;2.88;;;;;;;17.92;62.72;98447.75;5038599;28;20053;-59
2022/05/03 12:07:41;;;;;;;2.40;2.20;;;;;;;17.88;63.52;98452.25;5040470;28;20360;-60
2022/05/03 12:10:20;;;;;;;3.10;2.85;;;;;;;17.83;65.50;98451.66;5038420;28;20029;-59
2022/05/03 12:13:13;;;;;;;3.17;2.97;;;;;;;17.97;58.74;98437.97;5038023;28;20526;-59
2022/05/03 12:15:48;;;;;;;2.50;2.30;;;;;;;18.04;61.73;98447.13;5038778;28;20053;-60
2022/05/03 12:18:19;;;;;;;2.38;2.17;;;;;;;18.21;57.72;98440.13;5037858;28;20881;-60
2022/05/03 12:20:53;;;;;;;2.83;2.55;;;;;;;18.34;57.46;98444.66;5039287;28;20044;-60